sensor_id;sensor_type;location;lat;lon;timestamp;pressure;altitude;pressure_sealevel;temperature;humidity
19789;BME280;10054;59.332;18.244;2023-12-20T00:00:00;98982.09;;;0.74;100.00
19789;BME280;10054;59.332;18.244;2023-12-20T00:02:31;98981.61;;;0.75;100.00
19789;BME280;10054;59.332;18.244;2023-12-20T00:04:59;98989.05;;;0.74;100.00
19789;BME280;10054;59.332;18.244;2023-12-20T00:07:29;98986.45;;;0.74;100.00
19789;BME280;10054;59.332;18.244;2023-12-20T00:09:58;98982.45;;;0.75;100.00
19789;BME280;10054;59.332;18.244;2023-12-20T00:12:27;98980.47;;;0.80;100.00
19789;BME280;10054;59.332;18.244;2023-12-20T00:14:56;98988.33;;;0.79;100.00
19789;BME280;10054;59.332;18.244;2023-12-20T00:17:25;98989.25;;;0.78;100.00
19789;BME280;10054;59.332;18.244;2023-12-20T00:19:54;98989.39;;;0.75;100.00
19789;BME280;10054;59.332;18.244;2023-12-20T00:22:23;98987.81;;;0.72;100.00
19789;BME280;10054;59.332;18.244;2023-12-20T00:24:52;98981.48;;;0.69;100.00
19789;BME280;10054;59.332;18.244;2023-12-20T00:27:22;98985.98;;;0.65;100.00
19789;BME280;10054;59.332;18.244;2023-12-20T00:29:52;98983.84;;;0.65;100.00
19789;BME280;10054;59.332;18.244;2023-12-20T00:32:21;98983.14;;;0.61;100.00
19789;BME280;10054;59.332;18.244;2023-12-20T00:34:50;98984.52;;;0.60;100.00
19789;BME280;10054;59.332;18.244;2023-12-20T00:37:19;98989.39;;;0.57;100.00
19789;BME280;10054;59.332;18.244;2023-12-20T00:39:48;98982.00;;;0.58;100.00
19789;BME280;10054;59.332;18.244;2023-12-20T00:42:17;98980.70;;;0.58;100.00
19789;BME280;10054;59.332;18.244;2023-12-20T00:44:47;98979.02;;;0.57;100.00
19789;BME280;10054;59.332;18.244;2023-12-20T00:47:16;98961.00;;;0.54;100.00
19789;BME280;10054;59.332;18.244;2023-12-20T00:49:45;98957.26;;;0.51;100.00
19789;BME280;10054;59.332;18.244;2023-12-20T00:52:14;98958.17;;;0.50;100.00
19789;BME280;10054;59.332;18.244;2023-12-20T00:54:45;98956.56;;;0.48;100.00
19789;BME280;10054;59.332;18.244;2023-12-20T00:57:14;98957.48;;;0.47;100.00
19789;BME280;10054;59.332;18.244;2023-12-20T00:59:43;98961.38;;;0.47;100.00
19789;BME280;10054;59.332;18.244;2023-12-20T01:02:12;98966.72;;;0.52;100.00
19789;BME280;10054;59.332;18.244;2023-12-20T01:04:41;98966.03;;;0.49;100.00
19789;BME280;10054;59.332;18.244;2023-12-20T01:07:10;98971.89;;;0.44;100.00
19789;BME280;10054;59.332;18.244;2023-12-20T01:09:40;98971.41;;;0.36;100.00
19789;BME280;10054;59.332;18.244;2023-12-20T01:12:09;98974.22;;;0.31;100.00
19789;BME280;10054;59.332;18.244;2023-12-20T01:14:38;98972.37;;;0.24;100.00
19789;BME280;10054;59.332;18.244;2023-12-20T01:17:07;98973.81;;;0.21;100.00
19789;BME280;10054;59.332;18.244;2023-12-20T01:19:37;98967.02;;;0.19;100.00
19789;BME280;10054;59.332;18.244;2023-12-20T01:22:06;98959.84;;;0.15;100.00
19789;BME280;10054;59.332;18.244;2023-12-20T01:24:35;98963.48;;;0.11;100.00
19789;BME280;10054;59.332;18.244;2023-12-20T01:27:04;98962.26;;;0.10;100.00
19789;BME280;10054;59.332;18.244;2023-12-20T01:29:33;98959.81;;;0.07;100.00
19789;BME280;10054;59.332;18.244;2023-12-20T01:32:02;98955.15;;;0.05;100.00
19789;BME280;10054;59.332;18.244;2023-12-20T01:34:31;98958.66;;;0.04;100.00
19789;BME280;10054;59.332;18.244;2023-12-20T01:37:01;98957.28;;;0.05;100.00
19789;BME280;10054;59.332;18.244;2023-12-20T01:39:30;98958.52;;;0.07;100.00
19789;BME280;10054;59.332;18.244;2023-12-20T01:41:59;98962.33;;;0.08;100.00
19789;BME280;10054;59.332;18.244;2023-12-20T01:44:28;98958.52;;;0.07;100.00
19789;BME280;10054;59.332;18.244;2023-12-20T01:46:57;98954.16;;;0.07;100.00
19789;BME280;10054;59.332;18.244;2023-12-20T01:49:27;98946.63;;;0.11;100.00
19789;BME280;10054;59.332;18.244;2023-12-20T01:51:56;98948.34;;;0.21;100.00
19789;BME280;10054;59.332;18.244;2023-12-20T01:54:26;98947.36;;;0.23;100.00
19789;BME280;10054;59.332;18.244;2023-12-20T01:56:56;98950.09;;;0.20;100.00
19789;BME280;10054;59.332;18.244;2023-12-20T01:59:25;98952.90;;;0.16;100.00
19789;BME280;10054;59.332;18.244;2023-12-20T02:01:55;98947.47;;;0.12;100.00
19789;BME280;10054;59.332;18.244;2023-12-20T02:04:24;98950.28;;;0.07;100.00
19789;BME280;10054;59.332;18.244;2023-12-20T02:06:54;98950.11;;;0.02;100.00
19789;BME280;10054;59.332;18.244;2023-12-20T02:09:24;98961.39;;;0.00;100.00
19789;BME280;10054;59.332;18.244;2023-12-20T02:11:54;98955.47;;;-0.02;100.00
19789;BME280;10054;59.332;18.244;2023-12-20T02:14:23;98952.10;;;-0.04;100.00
19789;BME280;10054;59.332;18.244;2023-12-20T02:16:53;98946.92;;;-0.04;100.00
19789;BME280;10054;59.332;18.244;2023-12-20T02:19:22;98948.59;;;-0.03;100.00
19789;BME280;10054;59.332;18.244;2023-12-20T02:21:56;98942.13;;;-0.03;100.00
19789;BME280;10054;59.332;18.244;2023-12-20T02:24:21;98931.58;;;0.00;100.00
19789;BME280;10054;59.332;18.244;2023-12-20T02:26:50;98928.00;;;0.03;100.00
19789;BME280;10054;59.332;18.244;2023-12-20T02:29:19;98927.09;;;0.04;100.00
19789;BME280;10054;59.332;18.244;2023-12-20T02:31:48;98929.61;;;0.06;100.00
19789;BME280;10054;59.332;18.244;2023-12-20T02:34:17;98926.70;;;0.03;100.00
19789;BME280;10054;59.332;18.244;2023-12-20T02:36:46;98928.08;;;0.02;100.00
19789;BME280;10054;59.332;18.244;2023-12-20T02:39:15;98924.29;;;0.00;100.00
19789;BME280;10054;59.332;18.244;2023-12-20T02:41:45;98920.92;;;-0.02;100.00
19789;BME280;10054;59.332;18.244;2023-12-20T02:44:14;98924.81;;;-0.02;100.00
19789;BME280;10054;59.332;18.244;2023-12-20T02:46:43;98923.91;;;-0.01;100.00
19789;BME280;10054;59.332;18.244;2023-12-20T02:49:12;98918.33;;;-0.02;100.00
19789;BME280;10054;59.332;18.244;2023-12-20T02:51:41;98919.91;;;0.00;100.00
19789;BME280;10054;59.332;18.244;2023-12-20T02:54:11;98915.50;;;0.03;100.00
19789;BME280;10054;59.332;18.244;2023-12-20T02:56:41;98923.20;;;0.04;100.00
19789;BME280;10054;59.332;18.244;2023-12-20T02:59:10;98923.52;;;0.07;100.00
19789;BME280;10054;59.332;18.244;2023-12-20T03:01:45;98919.94;;;0.09;100.00
19789;BME280;10054;59.332;18.244;2023-12-20T03:04:14;98924.14;;;0.12;100.00
19789;BME280;10054;59.332;18.244;2023-12-20T03:06:43;98927.11;;;0.13;100.00
19789;BME280;10054;59.332;18.244;2023-12-20T03:09:12;98915.08;;;0.20;100.00
19789;BME280;10054;59.332;18.244;2023-12-20T03:11:41;98907.69;;;0.21;100.00
19789;BME280;10054;59.332;18.244;2023-12-20T03:14:19;98903.56;;;0.17;100.00
19789;BME280;10054;59.332;18.244;2023-12-20T03:16:51;98900.20;;;0.15;100.00
19789;BME280;10054;59.332;18.244;2023-12-20T03:19:21;98895.16;;;0.12;100.00
19789;BME280;10054;59.332;18.244;2023-12-20T03:21:50;98896.45;;;0.12;100.00
19789;BME280;10054;59.332;18.244;2023-12-20T03:24:20;98888.37;;;0.10;100.00
19789;BME280;10054;59.332;18.244;2023-12-20T03:26:50;98881.05;;;0.09;100.00
19789;BME280;10054;59.332;18.244;2023-12-20T03:29:19;98884.24;;;0.06;100.00
19789;BME280;10054;59.332;18.244;2023-12-20T03:31:51;98895.53;;;0.05;100.00
19789;BME280;10054;59.332;18.244;2023-12-20T03:34:21;98890.41;;;0.03;100.00
19789;BME280;10054;59.332;18.244;2023-12-20T03:36:49;98891.78;;;0.02;100.00
19789;BME280;10054;59.332;18.244;2023-12-20T03:39:18;98885.41;;;0.00;100.00
19789;BME280;10054;59.332;18.244;2023-12-20T03:41:48;98889.37;;;-0.02;100.00
19789;BME280;10054;59.332;18.244;2023-12-20T03:44:18;98888.06;;;-0.02;100.00
19789;BME280;10054;59.332;18.244;2023-12-20T03:46:48;98888.21;;;-0.05;100.00
19789;BME280;10054;59.332;18.244;2023-12-20T03:49:17;98885.16;;;-0.04;100.00
19789;BME280;10054;59.332;18.244;2023-12-20T03:51:46;98882.64;;;-0.06;100.00
19789;BME280;10054;59.332;18.244;2023-12-20T03:54:15;98879.28;;;-0.08;100.00
19789;BME280;10054;59.332;18.244;2023-12-20T03:56:44;98869.38;;;-0.08;100.00
19789;BME280;10054;59.332;18.244;2023-12-20T03:59:13;98872.80;;;-0.08;100.00
19789;BME280;10054;59.332;18.244;2023-12-20T04:01:45;98871.58;;;-0.09;100.00
19789;BME280;10054;59.332;18.244;2023-12-20T04:04:14;98872.04;;;-0.10;100.00
19789;BME280;10054;59.332;18.244;2023-12-20T04:06:43;98872.49;;;-0.10;100.00
19789;BME280;10054;59.332;18.244;2023-12-20T04:09:13;98874.70;;;-0.11;100.00
19789;BME280;10054;59.332;18.244;2023-12-20T04:11:42;98868.68;;;-0.12;100.00
19789;BME280;10054;59.332;18.244;2023-12-20T04:14:11;98872.56;;;-0.12;100.00
19789;BME280;10054;59.332;18.244;2023-12-20T04:16:40;98874.46;;;-0.15;100.00
19789;BME280;10054;59.332;18.244;2023-12-20T04:19:10;98865.84;;;-0.16;100.00
19789;BME280;10054;59.332;18.244;2023-12-20T04:21:39;98868.05;;;-0.17;100.00
19789;BME280;10054;59.332;18.244;2023-12-20T04:24:08;98871.55;;;-0.18;100.00
19789;BME280;10054;59.332;18.244;2023-12-20T04:26:37;98872.02;;;-0.18;100.00
19789;BME280;10054;59.332;18.244;2023-12-20T04:29:06;98872.85;;;-0.18;100.00
19789;BME280;10054;59.332;18.244;2023-12-20T04:31:35;98867.67;;;-0.18;100.00
19789;BME280;10054;59.332;18.244;2023-12-20T04:34:04;98870.12;;;-0.15;100.00
19789;BME280;10054;59.332;18.244;2023-12-20T04:36:33;98866.23;;;-0.15;100.00
19789;BME280;10054;59.332;18.244;2023-12-20T04:39:02;98863.56;;;-0.13;100.00
19789;BME280;10054;59.332;18.244;2023-12-20T04:41:31;98865.31;;;-0.14;100.00
19789;BME280;10054;59.332;18.244;2023-12-20T04:44:01;98859.30;;;-0.14;100.00
19789;BME280;10054;59.332;18.244;2023-12-20T04:46:30;98855.19;;;-0.10;100.00
19789;BME280;10054;59.332;18.244;2023-12-20T04:48:59;98851.83;;;-0.12;100.00
19789;BME280;10054;59.332;18.244;2023-12-20T04:51:29;98856.84;;;-0.17;100.00
19789;BME280;10054;59.332;18.244;2023-12-20T04:53:58;98859.20;;;-0.21;100.00
19789;BME280;10054;59.332;18.244;2023-12-20T04:56:27;98858.95;;;-0.25;100.00
19789;BME280;10054;59.332;18.244;2023-12-20T04:58:56;98853.39;;;-0.26;100.00
19789;BME280;10054;59.332;18.244;2023-12-20T05:01:25;98849.12;;;-0.27;100.00
19789;BME280;10054;59.332;18.244;2023-12-20T05:03:54;98851.78;;;-0.29;100.00
19789;BME280;10054;59.332;18.244;2023-12-20T05:06:23;98842.78;;;-0.30;100.00
19789;BME280;10054;59.332;18.244;2023-12-20T05:08:52;98843.09;;;-0.28;100.00
19789;BME280;10054;59.332;18.244;2023-12-20T05:11:21;98836.55;;;-0.26;100.00
19789;BME280;10054;59.332;18.244;2023-12-20T05:13:50;98831.73;;;-0.34;100.00
19789;BME280;10054;59.332;18.244;2023-12-20T05:16:19;98826.16;;;-0.35;100.00
19789;BME280;10054;59.332;18.244;2023-12-20T05:18:49;98827.00;;;-0.35;100.00
19789;BME280;10054;59.332;18.244;2023-12-20T05:21:20;98816.64;;;-0.35;100.00
19789;BME280;10054;59.332;18.244;2023-12-20T05:23:50;98818.31;;;-0.34;100.00
19789;BME280;10054;59.332;18.244;2023-12-20T05:26:19;98815.41;;;-0.36;100.00
19789;BME280;10054;59.332;18.244;2023-12-20T05:28:48;98815.94;;;-0.38;100.00
19789;BME280;10054;59.332;18.244;2023-12-20T05:31:17;98821.65;;;-0.40;100.00
19789;BME280;10054;59.332;18.244;2023-12-20T05:33:47;98813.25;;;-0.45;100.00
19789;BME280;10054;59.332;18.244;2023-12-20T05:36:16;98813.99;;;-0.52;100.00
19789;BME280;10054;59.332;18.244;2023-12-20T05:38:45;98818.55;;;-0.57;100.00
19789;BME280;10054;59.332;18.244;2023-12-20T05:41:14;98819.07;;;-0.59;100.00
19789;BME280;10054;59.332;18.244;2023-12-20T05:43:43;98819.45;;;-0.58;100.00
19789;BME280;10054;59.332;18.244;2023-12-20T05:46:12;98814.20;;;-0.56;100.00
19789;BME280;10054;59.332;18.244;2023-12-20T05:48:41;98810.17;;;-0.53;100.00
19789;BME280;10054;59.332;18.244;2023-12-20T05:51:12;98824.35;;;-0.52;100.00
19789;BME280;10054;59.332;18.244;2023-12-20T05:53:41;98822.46;;;-0.48;100.00
19789;BME280;10054;59.332;18.244;2023-12-20T05:56:10;98812.94;;;-0.48;100.00
19789;BME280;10054;59.332;18.244;2023-12-20T05:58:40;98809.44;;;-0.47;100.00
19789;BME280;10054;59.332;18.244;2023-12-20T06:01:10;98801.59;;;-0.45;100.00
19789;BME280;10054;59.332;18.244;2023-12-20T06:03:41;98796.66;;;-0.41;100.00
19789;BME280;10054;59.332;18.244;2023-12-20T06:06:10;98792.17;;;-0.38;100.00
19789;BME280;10054;59.332;18.244;2023-12-20T06:08:41;98787.83;;;-0.37;100.00
19789;BME280;10054;59.332;18.244;2023-12-20T06:11:11;98781.05;;;-0.40;100.00
19789;BME280;10054;59.332;18.244;2023-12-20T06:13:41;98779.51;;;-0.44;100.00
19789;BME280;10054;59.332;18.244;2023-12-20T06:16:10;98769.67;;;-0.46;100.00
19789;BME280;10054;59.332;18.244;2023-12-20T06:18:39;98780.03;;;-0.46;100.00
19789;BME280;10054;59.332;18.244;2023-12-20T06:21:08;98782.24;;;-0.47;100.00
19789;BME280;10054;59.332;18.244;2023-12-20T06:23:39;98785.67;;;-0.46;100.00
19789;BME280;10054;59.332;18.244;2023-12-20T06:26:08;98782.17;;;-0.45;100.00
19789;BME280;10054;59.332;18.244;2023-12-20T06:28:38;98788.19;;;-0.45;100.00
19789;BME280;10054;59.332;18.244;2023-12-20T06:31:07;98778.21;;;-0.44;100.00
19789;BME280;10054;59.332;18.244;2023-12-20T06:33:38;98780.42;;;-0.45;100.00
19789;BME280;10054;59.332;18.244;2023-12-20T06:36:13;98777.06;;;-0.47;100.00
19789;BME280;10054;59.332;18.244;2023-12-20T06:38:42;98771.12;;;-0.49;100.00
19789;BME280;10054;59.332;18.244;2023-12-20T06:41:13;98772.48;;;-0.50;100.00
19789;BME280;10054;59.332;18.244;2023-12-20T06:43:42;98770.59;;;-0.47;100.00
19789;BME280;10054;59.332;18.244;2023-12-20T06:46:11;98769.22;;;-0.45;100.00
19789;BME280;10054;59.332;18.244;2023-12-20T06:48:40;98770.06;;;-0.45;100.00
19789;BME280;10054;59.332;18.244;2023-12-20T06:51:12;98770.38;;;-0.42;100.00
19789;BME280;10054;59.332;18.244;2023-12-20T06:53:41;98761.69;;;-0.41;100.00
19789;BME280;10054;59.332;18.244;2023-12-20T06:56:11;98764.13;;;-0.38;100.00
19789;BME280;10054;59.332;18.244;2023-12-20T06:58:40;98766.43;;;-0.32;100.00
19789;BME280;10054;59.332;18.244;2023-12-20T07:01:14;98765.06;;;-0.30;100.00
19789;BME280;10054;59.332;18.244;2023-12-20T07:03:43;98760.34;;;-0.31;100.00
19789;BME280;10054;59.332;18.244;2023-12-20T07:06:13;98751.96;;;-0.27;100.00
19789;BME280;10054;59.332;18.244;2023-12-20T07:08:43;98763.02;;;-0.24;100.00
19789;BME280;10054;59.332;18.244;2023-12-20T07:11:13;98759.75;;;-0.19;100.00
19789;BME280;10054;59.332;18.244;2023-12-20T07:13:42;98762.04;;;-0.13;100.00
19789;BME280;10054;59.332;18.244;2023-12-20T07:16:11;98765.48;;;-0.04;100.00
19789;BME280;10054;59.332;18.244;2023-12-20T07:18:40;98769.37;;;-0.04;100.00
19789;BME280;10054;59.332;18.244;2023-12-20T07:21:10;98770.35;;;-0.06;100.00
19789;BME280;10054;59.332;18.244;2023-12-20T07:23:39;98772.56;;;-0.07;100.00
19789;BME280;10054;59.332;18.244;2023-12-20T07:26:08;98770.96;;;-0.10;100.00
19789;BME280;10054;59.332;18.244;2023-12-20T07:28:37;98774.08;;;-0.12;100.00
19789;BME280;10054;59.332;18.244;2023-12-20T07:31:06;98766.84;;;-0.14;100.00
19789;BME280;10054;59.332;18.244;2023-12-20T07:33:35;98765.23;;;-0.16;100.00
19789;BME280;10054;59.332;18.244;2023-12-20T07:36:05;98765.23;;;-0.16;100.00
19789;BME280;10054;59.332;18.244;2023-12-20T07:38:34;98762.64;;;-0.16;100.00
19789;BME280;10054;59.332;18.244;2023-12-20T07:41:03;98753.66;;;-0.18;100.00
19789;BME280;10054;59.332;18.244;2023-12-20T07:43:32;98748.55;;;-0.19;100.00
19789;BME280;10054;59.332;18.244;2023-12-20T07:46:06;98742.06;;;-0.19;100.00
19789;BME280;10054;59.332;18.244;2023-12-20T07:48:36;98738.63;;;-0.20;100.00
19789;BME280;10054;59.332;18.244;2023-12-20T07:51:05;98742.14;;;-0.21;100.00
19789;BME280;10054;59.332;18.244;2023-12-20T07:53:35;98736.95;;;-0.21;100.00
19789;BME280;10054;59.332;18.244;2023-12-20T07:56:18;98734.29;;;-0.19;100.00
19789;BME280;10054;59.332;18.244;2023-12-20T07:58:48;98727.81;;;-0.19;100.00
19789;BME280;10054;59.332;18.244;2023-12-20T08:01:17;98734.29;;;-0.19;100.00
19789;BME280;10054;59.332;18.244;2023-12-20T08:03:48;98721.26;;;-0.18;100.00
19789;BME280;10054;59.332;18.244;2023-12-20T08:06:17;98725.91;;;-0.16;100.00
19789;BME280;10054;59.332;18.244;2023-12-20T08:08:46;98720.65;;;-0.14;100.00
19789;BME280;10054;59.332;18.244;2023-12-20T08:11:16;98712.73;;;-0.11;100.00
19789;BME280;10054;59.332;18.244;2023-12-20T08:13:45;98714.63;;;-0.06;100.00
19789;BME280;10054;59.332;18.244;2023-12-20T08:16:14;98711.73;;;0.00;100.00
19789;BME280;10054;59.332;18.244;2023-12-20T08:18:45;98714.29;;;0.09;100.00
19789;BME280;10054;59.332;18.244;2023-12-20T08:21:14;98714.90;;;0.14;100.00
19789;BME280;10054;59.332;18.244;2023-12-20T08:23:43;98704.91;;;0.15;100.00
19789;BME280;10054;59.332;18.244;2023-12-20T08:26:13;98711.55;;;0.12;100.00
19789;BME280;10054;59.332;18.244;2023-12-20T08:28:42;98708.34;;;0.07;100.00
19789;BME280;10054;59.332;18.244;2023-12-20T08:31:15;98704.23;;;0.03;100.00
19789;BME280;10054;59.332;18.244;2023-12-20T08:33:46;98704.31;;;0.01;100.00
19789;BME280;10054;59.332;18.244;2023-12-20T08:36:15;98704.41;;;-0.01;100.00
19789;BME280;10054;59.332;18.244;2023-12-20T08:38:45;98702.44;;;-0.04;100.00
19789;BME280;10054;59.332;18.244;2023-12-20T08:41:15;98709.83;;;-0.05;100.00
19789;BME280;10054;59.332;18.244;2023-12-20T08:43:45;98713.26;;;-0.05;100.00
19789;BME280;10054;59.332;18.244;2023-12-20T08:46:15;98714.09;;;-0.04;100.00
19789;BME280;10054;59.332;18.244;2023-12-20T08:48:43;98713.56;;;-0.02;100.00
19789;BME280;10054;59.332;18.244;2023-12-20T08:51:13;98713.03;;;0.00;100.00
19789;BME280;10054;59.332;18.244;2023-12-20T08:53:43;98708.50;;;0.04;100.00
19789;BME280;10054;59.332;18.244;2023-12-20T08:56:12;98705.45;;;0.04;100.00
19789;BME280;10054;59.332;18.244;2023-12-20T08:58:42;98706.67;;;0.06;100.00
19789;BME280;10054;59.332;18.244;2023-12-20T09:01:11;98705.30;;;0.07;100.00
19789;BME280;10054;59.332;18.244;2023-12-20T09:03:40;98700.95;;;0.08;100.00
19789;BME280;10054;59.332;18.244;2023-12-20T09:06:09;98697.36;;;0.10;100.00
19789;BME280;10054;59.332;18.244;2023-12-20T09:08:39;98688.05;;;0.15;100.00
19789;BME280;10054;59.332;18.244;2023-12-20T09:11:08;98683.23;;;0.24;100.00
19789;BME280;10054;59.332;18.244;2023-12-20T09:13:37;98680.33;;;0.30;100.00
19789;BME280;10054;59.332;18.244;2023-12-20T09:16:07;98676.44;;;0.30;100.00
19789;BME280;10054;59.332;18.244;2023-12-20T09:18:36;98682.55;;;0.29;100.00
19789;BME280;10054;59.332;18.244;2023-12-20T09:21:05;98670.95;;;0.28;100.00
19789;BME280;10054;59.332;18.244;2023-12-20T09:23:34;98670.03;;;0.29;100.00
19789;BME280;10054;59.332;18.244;2023-12-20T09:26:04;98668.73;;;0.29;100.00
19789;BME280;10054;59.332;18.244;2023-12-20T09:28:33;98669.28;;;0.27;100.00
19789;BME280;10054;59.332;18.244;2023-12-20T09:31:04;98664.92;;;0.27;100.00
19789;BME280;10054;59.332;18.244;2023-12-20T09:33:34;98663.55;;;0.29;100.00
19789;BME280;10054;59.332;18.244;2023-12-20T09:36:03;98663.09;;;0.29;100.00
19789;BME280;10054;59.332;18.244;2023-12-20T09:38:34;98652.27;;;0.30;100.00
19789;BME280;10054;59.332;18.244;2023-12-20T09:41:09;98649.67;;;0.30;100.00
19789;BME280;10054;59.332;18.244;2023-12-20T09:43:39;98643.19;;;0.30;100.00
19789;BME280;10054;59.332;18.244;2023-12-20T09:46:10;98638.84;;;0.30;100.00
19789;BME280;10054;59.332;18.244;2023-12-20T09:48:41;98635.33;;;0.31;100.00
19789;BME280;10054;59.332;18.244;2023-12-20T09:51:12;98628.76;;;0.33;100.00
19789;BME280;10054;59.332;18.244;2023-12-20T09:53:42;98620.06;;;0.34;100.00
19789;BME280;10054;59.332;18.244;2023-12-20T09:56:12;98619.14;;;0.35;100.00
19789;BME280;10054;59.332;18.244;2023-12-20T09:58:41;98606.17;;;0.35;100.00
19789;BME280;10054;59.332;18.244;2023-12-20T10:01:11;98603.05;;;0.37;100.00
19789;BME280;10054;59.332;18.244;2023-12-20T10:03:41;98595.27;;;0.37;100.00
19789;BME280;10054;59.332;18.244;2023-12-20T10:06:11;98591.37;;;0.37;100.00
19789;BME280;10054;59.332;18.244;2023-12-20T10:08:40;98591.67;;;0.40;100.00
19789;BME280;10054;59.332;18.244;2023-12-20T10:11:11;98588.16;;;0.41;100.00
19789;BME280;10054;59.332;18.244;2023-12-20T10:13:40;98581.59;;;0.42;100.00
19789;BME280;10054;59.332;18.244;2023-12-20T10:16:10;98579.38;;;0.43;100.00
19789;BME280;10054;59.332;18.244;2023-12-20T10:18:39;98571.89;;;0.46;100.00
19789;BME280;10054;59.332;18.244;2023-12-20T10:21:08;98574.39;;;0.47;100.00
19789;BME280;10054;59.332;18.244;2023-12-20T10:23:38;98565.23;;;0.49;100.00
19789;BME280;10054;59.332;18.244;2023-12-20T10:26:08;98556.07;;;0.50;100.00
19789;BME280;10054;59.332;18.244;2023-12-20T10:28:37;98547.28;;;0.53;100.00
19789;BME280;10054;59.332;18.244;2023-12-20T10:31:06;98550.38;;;0.59;100.00
19789;BME280;10054;59.332;18.244;2023-12-20T10:33:36;98544.94;;;0.64;100.00
19789;BME280;10054;59.332;18.244;2023-12-20T10:36:05;98544.43;;;0.73;100.00
19789;BME280;10054;59.332;18.244;2023-12-20T10:38:36;98535.23;;;0.75;100.00
19789;BME280;10054;59.332;18.244;2023-12-20T10:41:06;98533.59;;;0.74;100.00
19789;BME280;10054;59.332;18.244;2023-12-20T10:43:37;98531.16;;;0.71;100.00
19789;BME280;10054;59.332;18.244;2023-12-20T10:46:07;98529.48;;;0.70;100.00
19789;BME280;10054;59.332;18.244;2023-12-20T10:48:38;98517.44;;;0.69;100.00
19789;BME280;10054;59.332;18.244;2023-12-20T10:51:08;98520.03;;;0.69;100.00
19789;BME280;10054;59.332;18.244;2023-12-20T10:53:39;98517.81;;;0.70;100.00
19789;BME280;10054;59.332;18.244;2023-12-20T10:56:11;98514.67;;;0.72;100.00
19789;BME280;10054;59.332;18.244;2023-12-20T10:58:42;98506.34;;;0.74;100.00
19789;BME280;10054;59.332;18.244;2023-12-20T11:01:13;98495.38;;;0.76;100.00
19789;BME280;10054;59.332;18.244;2023-12-20T11:03:50;98491.48;;;0.76;100.00
19789;BME280;10054;59.332;18.244;2023-12-20T11:06:41;98490.56;;;0.77;100.00
19789;BME280;10054;59.332;18.244;2023-12-20T11:12:13;98484.08;;;0.77;100.00
19789;BME280;10054;59.332;18.244;2023-12-20T11:14:48;98472.95;;;0.75;100.00
19789;BME280;10054;59.332;18.244;2023-12-20T11:17:18;98471.19;;;0.75;100.00
19789;BME280;10054;59.332;18.244;2023-12-20T11:22:30;98468.33;;;0.80;100.00
19789;BME280;10054;59.332;18.244;2023-12-20T11:25:07;98461.01;;;0.79;100.00
19789;BME280;10054;59.332;18.244;2023-12-20T11:27:40;98459.25;;;0.80;100.00
19789;BME280;10054;59.332;18.244;2023-12-20T11:30:08;98454.98;;;0.79;100.00
19789;BME280;10054;59.332;18.244;2023-12-20T11:32:37;98454.61;;;0.78;100.00
19789;BME280;10054;59.332;18.244;2023-12-20T11:37:43;98440.80;;;0.77;100.00
19789;BME280;10054;59.332;18.244;2023-12-20T11:40:16;98438.86;;;0.81;100.00
19789;BME280;10054;59.332;18.244;2023-12-20T11:42:51;98428.03;;;0.88;100.00
19789;BME280;10054;59.332;18.244;2023-12-20T11:45:19;98429.55;;;0.99;100.00
19789;BME280;10054;59.332;18.244;2023-12-20T11:47:50;98420.38;;;1.01;100.00
19789;BME280;10054;59.332;18.244;2023-12-20T11:50:21;98417.86;;;0.99;100.00
19789;BME280;10054;59.332;18.244;2023-12-20T11:52:52;98409.42;;;0.96;100.00
19789;BME280;10054;59.332;18.244;2023-12-20T11:55:23;98407.37;;;0.94;100.00
19789;BME280;10054;59.332;18.244;2023-12-20T11:57:52;98396.25;;;0.92;100.00
19789;BME280;10054;59.332;18.244;2023-12-20T12:00:21;98403.66;;;0.91;100.00
19789;BME280;10054;59.332;18.244;2023-12-20T12:03:00;98400.60;;;0.91;100.00
19789;BME280;10054;59.332;18.244;2023-12-20T12:05:31;98394.11;;;0.91;100.00
19789;BME280;10054;59.332;18.244;2023-12-20T12:08:00;98392.73;;;0.93;100.00
19789;BME280;10054;59.332;18.244;2023-12-20T12:10:30;98387.91;;;0.94;100.00
19789;BME280;10054;59.332;18.244;2023-12-20T12:13:00;98381.33;;;0.95;100.00
19789;BME280;10054;59.332;18.244;2023-12-20T12:15:30;98377.34;;;0.97;100.00
19789;BME280;10054;59.332;18.244;2023-12-20T12:18:00;98381.61;;;0.98;100.00
19789;BME280;10054;59.332;18.244;2023-12-20T12:20:31;98373.73;;;0.99;100.00
19789;BME280;10054;59.332;18.244;2023-12-20T12:23:05;98370.67;;;1.00;100.00
19789;BME280;10054;59.332;18.244;2023-12-20T12:25:36;98372.63;;;1.04;100.00
19789;BME280;10054;59.332;18.244;2023-12-20T12:28:06;98366.50;;;1.05;100.00
19789;BME280;10054;59.332;18.244;2023-12-20T12:30:35;98367.71;;;1.06;100.00
19789;BME280;10054;59.332;18.244;2023-12-20T12:33:04;98365.30;;;1.10;100.00
19789;BME280;10054;59.332;18.244;2023-12-20T12:35:33;98360.95;;;1.25;100.00
19789;BME280;10054;59.332;18.244;2023-12-20T12:38:03;98357.80;;;1.27;100.00
19789;BME280;10054;59.332;18.244;2023-12-20T12:40:34;98358.91;;;1.23;100.00
19789;BME280;10054;59.332;18.244;2023-12-20T12:43:04;98354.55;;;1.16;100.00
19789;BME280;10054;59.332;18.244;2023-12-20T12:45:34;98353.25;;;1.09;100.00
19789;BME280;10054;59.332;18.244;2023-12-20T12:48:04;98348.70;;;1.06;100.00
19789;BME280;10054;59.332;18.244;2023-12-20T12:50:32;98344.53;;;1.03;100.00
19789;BME280;10054;59.332;18.244;2023-12-20T12:53:02;98345.55;;;1.01;100.00
19789;BME280;10054;59.332;18.244;2023-12-20T12:55:31;98337.94;;;0.97;100.00
19789;BME280;10054;59.332;18.244;2023-12-20T12:58:00;98338.03;;;0.96;100.00
19789;BME280;10054;59.332;18.244;2023-12-20T13:00:29;98339.88;;;0.94;100.00
19789;BME280;10054;59.332;18.244;2023-12-20T13:02:58;98336.64;;;0.90;100.00
19789;BME280;10054;59.332;18.244;2023-12-20T13:05:27;98338.86;;;0.89;100.00